Time;durP1;ratioP1;P1;durP2;ratioP2;P2;SDS_P1;SDS_P2;PMS_P1;PMS_P2;Temp;Humidity;BMP_temperature;BMP_pressure;BME280_temperature;BME280_humidity;BME280_pressure;Samples;Min_cycle;Max_cycle;Signal;HPM_P1;HPM_P2
2023/06/23 00:01:09;;;;;;;7.67;2.80;;;18.10;99.90;;;;;;4937414;29;20219;-75
2023/06/23 00:03:38;;;;;;;6.63;2.97;;;18.10;99.90;;;;;;4936773;29;20244;-75
2023/06/23 00:06:07;;;;;;;5.10;3.00;;;18.00;99.90;;;;;;4937487;29;20217;-76
2023/06/23 00:08:38;;;;;;;5.43;3.10;;;18.00;99.90;;;;;;4937352;29;20666;-75
2023/06/23 00:11:07;;;;;;;6.63;2.77;;;17.90;99.90;;;;;;4937491;29;20214;-76
2023/06/23 00:13:36;;;;;;;6.20;2.83;;;17.90;99.90;;;;;;4937066;29;20243;-75
2023/06/23 00:16:06;;;;;;;3.93;2.60;;;17.90;99.90;;;;;;4936892;29;20262;-75
2023/06/23 00:18:36;;;;;;;4.70;2.80;;;17.90;99.90;;;;;;4936837;29;20279;-79
2023/06/23 00:21:05;;;;;;;4.80;2.70;;;17.90;99.90;;;;;;4936986;29;20192;-75
2023/06/23 00:23:34;;;;;;;5.80;2.80;;;17.90;99.90;;;;;;4936380;29;20204;-75
2023/06/23 00:26:03;;;;;;;6.47;2.73;;;17.80;99.90;;;;;;4936681;29;20240;-80
2023/06/23 00:28:33;;;;;;;5.70;2.80;;;17.80;99.90;;;;;;4936757;29;20216;-75
2023/06/23 00:31:02;;;;;;;8.77;2.80;;;17.80;99.90;;;;;;4936790;29;20215;-78
2023/06/23 00:33:30;;;;;;;4.77;2.60;;;17.70;99.90;;;;;;4936520;29;20877;-76
2023/06/23 00:35:58;;;;;;;5.23;2.57;;;17.70;99.90;;;;;;4936510;29;20299;-74
2023/06/23 00:38:27;;;;;;;4.07;2.77;;;17.70;99.90;;;;;;4936545;29;20307;-74
2023/06/23 00:40:55;;;;;;;5.87;2.60;;;17.70;99.90;;;;;;4935805;29;20666;-75
2023/06/23 00:43:23;;;;;;;4.43;2.73;;;17.60;99.90;;;;;;4971670;28;20238;-76
2023/06/23 00:45:53;;;;;;;5.50;2.50;;;17.60;99.90;;;;;;4948514;28;20204;-76
2023/06/23 00:48:22;;;;;;;2.93;2.37;;;17.50;99.90;;;;;;4937836;29;20503;-75
2023/06/23 00:50:50;;;;;;;6.37;2.70;;;17.50;99.90;;;;;;4940047;29;20216;-75
2023/06/23 00:53:19;;;;;;;6.90;2.70;;;17.50;99.90;;;;;;4969154;28;20740;-75
2023/06/23 00:55:47;;;;;;;7.53;2.63;;;17.40;99.90;;;;;;4957893;29;20235;-74
2023/06/23 00:58:16;;;;;;;6.37;2.77;;;17.40;99.90;;;;;;4956081;29;20689;-75
2023/06/23 01:00:45;;;;;;;6.00;2.80;;;17.40;99.90;;;;;;4955505;29;20212;-76
2023/06/23 01:03:15;;;;;;;5.73;2.90;;;17.30;99.90;;;;;;4949357;29;20256;-74
2023/06/23 01:05:47;;;;;;;5.53;2.37;;;17.30;99.90;;;;;;4936117;29;20197;-75
2023/06/23 01:08:26;;;;;;;6.70;2.60;;;17.40;99.90;;;;;;4936135;29;20212;-75
2023/06/23 01:11:00;;;;;;;3.50;2.27;;;17.40;99.90;;;;;;4935770;29;20200;-74
2023/06/23 01:13:34;;;;;;;6.87;2.37;;;17.40;99.90;;;;;;4936280;29;20570;-77
2023/06/23 01:16:08;;;;;;;5.33;2.60;;;17.40;99.90;;;;;;4936711;29;20204;-75
2023/06/23 01:18:47;;;;;;;5.10;2.50;;;17.40;99.90;;;;;;4936123;29;20200;-74
2023/06/23 01:21:20;;;;;;;4.33;2.30;;;17.40;99.90;;;;;;4935881;29;20212;-75
2023/06/23 01:24:04;;;;;;;4.43;2.57;;;17.40;99.90;;;;;;4945576;29;20211;-75
2023/06/23 01:26:46;;;;;;;4.00;2.13;;;17.30;99.90;;;;;;4954701;29;20199;-75
2023/06/23 01:29:20;;;;;;;4.33;2.33;;;17.30;99.90;;;;;;4954768;29;20666;-76
2023/06/23 01:31:54;;;;;;;4.47;2.23;;;17.30;99.90;;;;;;4953484;29;20294;-77
2023/06/23 01:34:28;;;;;;;5.00;2.57;;;17.30;99.90;;;;;;4954852;29;20245;-75
2023/06/23 01:37:03;;;;;;;5.70;2.33;;;17.30;99.90;;;;;;4954753;29;20219;-76
2023/06/23 01:39:35;;;;;;;3.13;2.37;;;17.30;99.90;;;;;;4954413;29;20702;-75
2023/06/23 01:42:09;;;;;;;4.70;2.57;;;17.20;99.90;;;;;;4964137;28;20204;-75
2023/06/23 01:44:43;;;;;;;4.00;2.57;;;17.20;99.90;;;;;;4935493;29;20216;-75
2023/06/23 01:47:17;;;;;;;3.67;2.33;;;17.30;99.90;;;;;;4935547;29;20616;-76
2023/06/23 01:49:47;;;;;;;4.00;2.13;;;17.30;99.90;;;;;;4935128;29;20673;-76
2023/06/23 01:52:17;;;;;;;6.00;2.37;;;17.30;99.90;;;;;;4933830;29;20263;-75
2023/06/23 01:54:48;;;;;;;3.00;2.07;;;17.30;99.90;;;;;;4934860;29;20243;-75
2023/06/23 01:57:19;;;;;;;3.57;2.03;;;17.20;99.90;;;;;;4935476;29;20521;-76
2023/06/23 01:59:50;;;;;;;4.83;2.30;;;17.30;99.90;;;;;;4935265;29;20216;-74
2023/06/23 02:02:20;;;;;;;5.73;2.33;;;17.30;99.90;;;;;;4937058;29;20204;-76
2023/06/23 02:04:50;;;;;;;5.90;2.40;;;17.20;99.90;;;;;;4943994;28;20196;-77
2023/06/23 02:07:20;;;;;;;4.33;2.20;;;17.30;99.90;;;;;;4939901;29;20207;-75
2023/06/23 02:09:49;;;;;;;2.57;2.13;;;17.30;99.90;;;;;;4948457;29;20223;-76
2023/06/23 02:12:18;;;;;;;3.83;2.40;;;17.30;99.90;;;;;;4934331;29;20212;-76
2023/06/23 02:14:51;;;;;;;4.83;2.40;;;17.30;99.90;;;;;;4934619;29;20276;-75
2023/06/23 02:17:21;;;;;;;4.17;2.30;;;17.20;99.90;;;;;;4935018;29;20625;-75
2023/06/23 02:19:53;;;;;;;3.07;2.30;;;17.20;99.90;;;;;;4934911;29;20224;-76
2023/06/23 02:22:23;;;;;;;3.73;2.63;;;17.30;99.90;;;;;;4934085;29;20690;-76
2023/06/23 02:24:52;;;;;;;3.70;2.30;;;17.30;99.90;;;;;;4934533;29;20215;-75
2023/06/23 02:27:22;;;;;;;3.17;2.00;;;17.30;99.90;;;;;;4934590;29;20244;-77
2023/06/23 02:29:52;;;;;;;3.27;2.03;;;17.30;99.90;;;;;;4934901;29;20216;-76
2023/06/23 02:32:20;;;;;;;3.10;1.97;;;17.30;99.90;;;;;;4934613;29;20612;-75
2023/06/23 02:34:49;;;;;;;3.80;2.27;;;17.30;99.90;;;;;;4934573;29;20694;-76
2023/06/23 02:37:23;;;;;;;2.67;2.10;;;17.20;99.90;;;;;;4934662;29;20212;-75
2023/06/23 02:39:55;;;;;;;4.53;2.10;;;17.20;99.90;;;;;;4958816;28;20218;-76
2023/06/23 02:42:31;;;;;;;3.90;2.13;;;17.20;99.90;;;;;;4972684;28;20235;-76
2023/06/23 02:45:04;;;;;;;3.63;2.07;;;17.20;99.90;;;;;;4972897;28;20282;-75
2023/06/23 02:47:37;;;;;;;2.40;2.00;;;17.20;99.90;;;;;;4972787;28;20215;-75
2023/06/23 02:50:11;;;;;;;3.93;2.20;;;17.20;99.90;;;;;;4934531;29;20263;-76
2023/06/23 02:52:46;;;;;;;4.07;2.27;;;17.20;99.90;;;;;;4934518;29;20267;-77
2023/06/23 02:55:18;;;;;;;2.57;2.37;;;17.20;99.90;;;;;;4934247;29;20236;-76
2023/06/23 02:57:50;;;;;;;3.97;2.20;;;17.20;99.90;;;;;;4934966;29;20216;-76
2023/06/23 03:00:22;;;;;;;4.17;2.30;;;17.30;99.90;;;;;;4953822;29;20215;-76
2023/06/23 03:02:54;;;;;;;5.63;2.33;;;17.20;99.90;;;;;;4953590;28;20187;-77
2023/06/23 03:05:22;;;;;;;3.03;1.93;;;17.20;99.90;;;;;;4957668;29;20211;-76
2023/06/23 03:07:51;;;;;;;4.40;2.10;;;17.20;99.90;;;;;;4957173;28;20212;-79
2023/06/23 03:10:20;;;;;;;2.13;1.93;;;17.30;99.90;;;;;;4957415;29;20254;-77
2023/06/23 03:12:49;;;;;;;3.43;2.10;;;17.30;99.90;;;;;;4957092;28;20258;-77
2023/06/23 03:15:17;;;;;;;5.33;2.20;;;17.30;99.90;;;;;;4956433;29;20238;-78
2023/06/23 03:17:49;;;;;;;3.77;2.00;;;17.30;99.90;;;;;;4937895;29;20220;-79
2023/06/23 03:20:27;;;;;;;3.40;2.17;;;17.30;99.90;;;;;;4938411;29;20256;-79
2023/06/23 03:23:00;;;;;;;3.47;2.10;;;17.20;99.90;;;;;;4937956;29;20266;-76
2023/06/23 03:25:28;;;;;;;3.53;1.97;;;17.20;99.90;;;;;;4938068;29;20216;-77
2023/06/23 03:28:00;;;;;;;4.37;2.10;;;17.20;99.90;;;;;;4940467;29;20212;-76
2023/06/23 03:30:34;;;;;;;2.83;2.13;;;17.20;99.90;;;;;;4957151;28;20196;-76
2023/06/23 03:33:12;;;;;;;3.17;2.07;;;17.20;99.90;;;;;;4956942;28;20207;-76
2023/06/23 03:35:43;;;;;;;4.83;2.10;;;17.10;99.90;;;;;;4937568;29;20291;-77
2023/06/23 03:38:17;;;;;;;3.60;2.30;;;17.10;99.90;;;;;;4957750;28;20273;-78
2023/06/23 03:40:49;;;;;;;2.73;2.10;;;17.20;99.90;;;;;;4976316;28;20615;-75
2023/06/23 03:43:26;;;;;;;3.53;2.07;;;17.20;99.90;;;;;;4961876;28;20232;-76
2023/06/23 03:45:59;;;;;;;3.67;2.23;;;17.20;99.90;;;;;;4948635;29;20642;-76
2023/06/23 03:48:31;;;;;;;3.90;2.40;;;17.20;99.90;;;;;;4949219;28;20214;-77
2023/06/23 03:51:01;;;;;;;5.17;2.20;;;17.20;99.90;;;;;;4944514;28;20280;-76
2023/06/23 03:53:32;;;;;;;4.60;2.23;;;17.20;99.90;;;;;;4946934;29;20235;-76
2023/06/23 03:56:01;;;;;;;2.80;2.20;;;17.20;99.90;;;;;;4945501;29;20215;-78
2023/06/23 03:58:31;;;;;;;3.20;2.30;;;17.20;99.90;;;;;;4947760;29;20350;-77
2023/06/23 04:01:00;;;;;;;5.33;2.40;;;17.20;99.90;;;;;;4944999;29;20693;-77
2023/06/23 04:03:31;;;;;;;5.20;2.50;;;17.20;99.90;;;;;;4946624;29;20260;-77
2023/06/23 04:06:01;;;;;;;4.60;2.10;;;17.20;99.90;;;;;;4945653;29;20263;-78
2023/06/23 04:08:32;;;;;;;3.50;2.23;;;17.30;99.90;;;;;;4946766;28;20630;-76
2023/06/23 04:11:01;;;;;;;4.47;2.00;;;17.30;99.90;;;;;;4945512;28;20204;-78
2023/06/23 04:13:32;;;;;;;2.30;1.93;;;17.30;99.90;;;;;;4945824;29;20263;-76
2023/06/23 04:16:01;;;;;;;2.60;2.07;;;17.40;99.90;;;;;;4941142;28;20260;-76
2023/06/23 04:18:34;;;;;;;2.97;1.90;;;17.40;99.90;;;;;;4936799;29;20212;-78
2023/06/23 04:21:05;;;;;;;3.17;1.80;;;17.50;99.90;;;;;;4941350;29;20263;-76
2023/06/23 04:23:35;;;;;;;4.37;2.07;;;17.60;99.90;;;;;;4952941;29;20211;-77
2023/06/23 04:26:07;;;;;;;3.40;2.30;;;17.60;99.90;;;;;;4944520;29;20220;-77
2023/06/23 04:28:36;;;;;;;3.73;2.13;;;17.60;99.90;;;;;;4937103;29;20215;-77
2023/06/23 04:31:07;;;;;;;4.20;2.27;;;17.50;99.90;;;;;;4939090;29;20634;-79
2023/06/23 04:33:38;;;;;;;2.70;2.10;;;17.60;99.90;;;;;;4955463;28;20846;-76
2023/06/23 04:36:13;;;;;;;3.57;2.10;;;17.60;99.90;;;;;;4960339;28;20210;-77
2023/06/23 04:38:47;;;;;;;5.87;2.00;;;17.70;99.90;;;;;;4944939;28;20216;-78
2023/06/23 04:41:20;;;;;;;4.03;2.10;;;17.70;99.90;;;;;;4943377;29;20204;-77
2023/06/23 04:43:52;;;;;;;3.07;1.77;;;17.70;99.90;;;;;;4943811;29;20251;-77
2023/06/23 04:46:24;;;;;;;2.30;2.00;;;17.80;99.90;;;;;;4939070;29;20234;-76
2023/06/23 04:48:56;;;;;;;2.93;2.00;;;17.80;99.90;;;;;;4936365;28;20248;-76
2023/06/23 04:51:29;;;;;;;5.07;1.80;;;18.00;99.90;;;;;;4936242;29;20670;-75
2023/06/23 04:54:03;;;;;;;4.13;1.60;;;18.00;99.90;;;;;;4935699;29;20290;-75
2023/06/23 04:56:35;;;;;;;2.20;1.60;;;18.10;99.90;;;;;;4936283;29;20560;-75
2023/06/23 04:59:07;;;;;;;2.33;1.50;;;18.20;99.90;;;;;;4936305;29;20217;-77
2023/06/23 05:01:37;;;;;;;4.73;1.50;;;18.30;99.90;;;;;;4936315;29;20212;-78
2023/06/23 05:04:08;;;;;;;3.27;1.40;;;18.40;99.90;;;;;;4935628;29;20674;-76
2023/06/23 05:06:38;;;;;;;2.10;1.63;;;18.50;99.90;;;;;;4936417;29;20287;-78
2023/06/23 05:09:08;;;;;;;3.83;1.57;;;18.50;99.90;;;;;;4936594;29;20208;-76
2023/06/23 05:11:37;;;;;;;2.57;1.27;;;18.70;99.90;;;;;;4936555;29;20228;-78
2023/06/23 05:14:07;;;;;;;1.30;1.20;;;18.70;99.90;;;;;;4946898;29;20753;-76
2023/06/23 05:16:36;;;;;;;1.97;1.17;;;18.70;99.90;;;;;;4955161;28;20306;-74
2023/06/23 05:19:08;;;;;;;2.07;1.20;;;18.60;99.90;;;;;;4955447;29;20211;-75
2023/06/23 05:21:37;;;;;;;5.13;1.50;;;18.50;99.90;;;;;;4955239;28;20748;-76
2023/06/23 05:24:09;;;;;;;5.13;1.63;;;18.40;99.90;;;;;;4936393;29;20311;-76
2023/06/23 05:26:41;;;;;;;3.00;1.20;;;18.30;99.90;;;;;;4935696;29;20310;-76
2023/06/23 05:29:14;;;;;;;1.43;1.30;;;18.20;99.90;;;;;;4935740;29;20613;-75
2023/06/23 05:31:44;;;;;;;4.20;1.30;;;18.10;99.90;;;;;;4934813;29;20251;-76
2023/06/23 05:34:18;;;;;;;1.30;1.20;;;18.00;99.90;;;;;;4937053;28;20208;-75
2023/06/23 05:36:49;;;;;;;3.37;1.30;;;17.80;99.90;;;;;;4973101;28;20242;-75
2023/06/23 05:39:20;;;;;;;1.97;1.30;;;17.70;99.90;;;;;;4967922;28;20224;-76
2023/06/23 05:41:48;;;;;;;2.60;1.30;;;17.60;99.90;;;;;;4935149;29;20212;-77
2023/06/23 05:44:16;;;;;;;1.37;1.27;;;17.50;99.90;;;;;;4935456;29;20221;-76
2023/06/23 05:46:47;;;;;;;3.87;1.37;;;17.60;99.90;;;;;;4935943;29;20232;-76
2023/06/23 05:49:19;;;;;;;2.07;1.20;;;17.50;99.90;;;;;;4935813;29;20219;-75
2023/06/23 05:51:54;;;;;;;1.20;1.10;;;17.50;99.90;;;;;;4936190;29;20205;-77
2023/06/23 05:54:24;;;;;;;1.30;1.20;;;17.50;99.90;;;;;;4935749;29;20278;-76
2023/06/23 05:56:57;;;;;;;2.53;1.40;;;17.50;99.90;;;;;;4936048;29;20239;-77
2023/06/23 05:59:33;;;;;;;2.83;1.10;;;17.40;99.90;;;;;;4935672;29;20212;-78
2023/06/23 06:02:04;;;;;;;2.10;1.33;;;17.50;99.90;;;;;;4935236;29;20215;-79
2023/06/23 06:04:38;;;;;;;1.53;1.20;;;17.40;99.90;;;;;;4935534;29;20283;-79
2023/06/23 06:07:08;;;;;;;2.37;1.30;;;17.40;99.90;;;;;;4935277;29;20725;-77
2023/06/23 06:09:37;;;;;;;2.30;1.00;;;17.30;99.90;;;;;;4936455;29;20254;-77
2023/06/23 06:12:07;;;;;;;1.10;1.00;;;17.30;99.90;;;;;;4935216;29;20208;-76
2023/06/23 06:14:36;;;;;;;2.13;1.20;;;17.30;99.90;;;;;;4935905;29;20212;-77
2023/06/23 06:17:06;;;;;;;1.47;1.10;;;17.30;99.90;;;;;;4935330;29;20276;-77
2023/06/23 06:19:38;;;;;;;1.20;1.10;;;17.30;99.90;;;;;;4935492;29;20196;-81
2023/06/23 06:22:10;;;;;;;2.93;1.10;;;17.30;99.90;;;;;;4935045;29;20247;-79
2023/06/23 06:24:39;;;;;;;1.50;1.40;;;17.20;99.90;;;;;;4935400;29;20230;-80
2023/06/23 06:27:10;;;;;;;2.87;1.50;;;17.10;99.90;;;;;;4935095;29;20632;-79
2023/06/23 06:29:41;;;;;;;1.90;1.80;;;17.00;99.90;;;;;;4935188;29;20259;-79
2023/06/23 06:32:11;;;;;;;3.00;2.67;;;17.00;99.90;;;;;;4934834;29;20215;-79
2023/06/23 06:34:42;;;;;;;3.53;3.17;;;16.90;99.90;;;;;;4965716;28;20297;-78
2023/06/23 06:37:11;;;;;;;4.37;3.97;;;16.80;99.90;;;;;;4973547;28;20191;-78
2023/06/23 06:39:41;;;;;;;4.87;4.23;;;16.60;99.90;;;;;;4938969;28;20350;-79
2023/06/23 06:42:10;;;;;;;5.10;4.30;;;16.50;99.90;;;;;;4934705;29;20227;-77
2023/06/23 06:44:39;;;;;;;6.23;4.57;;;16.50;99.90;;;;;;4935048;29;20290;-81
2023/06/23 06:47:11;;;;;;;4.77;4.27;;;16.50;99.90;;;;;;4934682;29;20299;-81
2023/06/23 06:49:41;;;;;;;4.93;4.30;;;16.50;99.90;;;;;;4935181;29;20207;-77
2023/06/23 06:52:10;;;;;;;4.40;3.97;;;16.70;99.90;;;;;;4934266;29;20211;-80
2023/06/23 06:54:38;;;;;;;5.43;4.07;;;16.70;99.90;;;;;;4934577;29;20279;-79
2023/06/23 06:57:07;;;;;;;4.20;3.80;;;16.90;99.90;;;;;;4934796;29;20236;-76
2023/06/23 06:59:35;;;;;;;3.60;3.30;;;17.10;99.90;;;;;;4935472;29;20237;-78
2023/06/23 07:02:06;;;;;;;3.93;3.53;;;17.30;99.90;;;;;;4934604;29;20240;-79
2023/06/23 07:04:35;;;;;;;3.83;3.47;;;17.40;99.90;;;;;;4934553;29;20251;-80
2023/06/23 07:07:05;;;;;;;4.70;3.67;;;17.40;99.90;;;;;;4934451;29;20216;-80
2023/06/23 07:09:34;;;;;;;4.33;3.87;;;17.40;99.90;;;;;;4934944;29;20216;-79
2023/06/23 07:12:02;;;;;;;4.73;4.20;;;17.50;99.90;;;;;;4934068;29;20251;-75
2023/06/23 07:14:30;;;;;;;5.37;4.53;;;17.50;99.90;;;;;;4933979;29;20681;-81
2023/06/23 07:16:58;;;;;;;11.27;5.00;;;17.50;99.90;;;;;;4934665;29;20259;-76
2023/06/23 07:19:26;;;;;;;5.43;4.93;;;17.60;99.90;;;;;;4934715;29;20243;-79
2023/06/23 07:21:54;;;;;;;8.90;5.13;;;17.70;99.90;;;;;;4934475;29;20611;-79
2023/06/23 07:24:24;;;;;;;6.20;5.20;;;17.60;99.90;;;;;;4934573;29;20291;-81
2023/06/23 07:26:52;;;;;;;6.20;5.40;;;17.60;99.90;;;;;;4934697;29;20209;-76
2023/06/23 07:29:20;;;;;;;7.23;5.93;;;17.50;99.90;;;;;;4934652;29;20251;-77
2023/06/23 07:31:48;;;;;;;6.63;5.93;;;17.50;99.90;;;;;;4942293;28;20664;-79
2023/06/23 07:34:16;;;;;;;6.53;5.77;;;17.50;99.90;;;;;;4973139;28;20238;-79
2023/06/23 07:36:45;;;;;;;6.90;6.20;;;17.50;99.90;;;;;;4972823;28;20254;-77
2023/06/23 07:39:13;;;;;;;6.83;5.70;;;17.50;99.90;;;;;;4973079;28;20609;-80
2023/06/23 07:41:42;;;;;;;7.53;6.73;;;17.50;99.90;;;;;;4951319;28;20247;-78
2023/06/23 07:44:11;;;;;;;7.67;6.73;;;17.40;99.90;;;;;;4933978;29;20215;-75
2023/06/23 07:46:39;;;;;;;7.53;6.73;;;17.30;99.90;;;;;;4934527;29;20204;-78
2023/06/23 07:49:07;;;;;;;8.53;7.70;;;17.20;99.90;;;;;;4934087;29;20240;-76
2023/06/23 07:51:35;;;;;;;9.60;7.97;;;17.10;99.90;;;;;;4936955;29;20743;-77
2023/06/23 07:54:03;;;;;;;8.70;7.90;;;17.10;99.90;;;;;;4937351;29;20243;-75
2023/06/23 07:56:34;;;;;;;9.07;8.17;;;17.20;99.90;;;;;;4937365;29;20787;-77
2023/06/23 07:59:04;;;;;;;8.60;7.80;;;17.20;99.90;;;;;;4937403;29;20287;-76
2023/06/23 08:01:32;;;;;;;9.03;7.90;;;17.30;99.90;;;;;;4937709;29;20630;-76
2023/06/23 08:04:01;;;;;;;10.33;8.57;;;17.20;99.90;;;;;;4937499;29;20216;-77
2023/06/23 08:06:29;;;;;;;10.07;8.10;;;17.20;99.90;;;;;;4937440;29;20213;-76
2023/06/23 08:08:58;;;;;;;10.63;8.70;;;17.20;99.90;;;;;;4937283;29;20267;-77
2023/06/23 08:11:26;;;;;;;8.90;8.00;;;17.50;99.90;;;;;;4937337;29;20287;-76
2023/06/23 08:13:55;;;;;;;8.33;7.50;;;18.10;99.90;;;;;;4937227;29;20220;-76
2023/06/23 08:16:24;;;;;;;9.27;7.17;;;18.70;99.90;;;;;;4937096;29;20216;-77
2023/06/23 08:18:53;;;;;;;8.97;7.27;;;19.20;99.90;;;;;;4936903;29;20209;-76
2023/06/23 08:21:21;;;;;;;7.93;7.13;;;19.60;99.90;;;;;;4937194;29;20243;-75
2023/06/23 08:23:50;;;;;;;8.70;7.13;;;19.50;99.90;;;;;;4936827;29;20223;-75
2023/06/23 08:26:19;;;;;;;8.87;7.20;;;19.60;99.90;;;;;;4937714;29;20216;-75
2023/06/23 08:28:47;;;;;;;8.27;7.10;;;19.60;99.90;;;;;;4938250;29;20228;-77
2023/06/23 08:31:16;;;;;;;7.80;6.80;;;19.50;99.90;;;;;;4949861;29;20892;-76
2023/06/23 08:33:46;;;;;;;7.90;7.03;;;19.50;99.90;;;;;;4956045;28;20211;-76
2023/06/23 08:36:14;;;;;;;8.10;7.03;;;19.70;99.90;;;;;;4956609;28;20219;-75
2023/06/23 08:38:42;;;;;;;7.77;6.97;;;19.80;99.90;;;;;;4947317;29;20212;-76
2023/06/23 08:41:11;;;;;;;8.20;6.53;;;19.80;99.90;;;;;;4936660;29;20675;-77
2023/06/23 08:43:44;;;;;;;8.03;7.23;;;19.70;99.90;;;;;;4936193;29;20271;-76
2023/06/23 08:46:14;;;;;;;7.83;7.03;;;19.80;99.90;;;;;;4936570;29;20670;-76
2023/06/23 08:48:46;;;;;;;7.77;6.97;;;19.70;99.90;;;;;;4936768;29;20236;-76
2023/06/23 08:51:15;;;;;;;8.17;7.30;;;19.50;99.90;;;;;;4936631;29;20243;-77
2023/06/23 08:53:44;;;;;;;9.43;7.73;;;19.20;99.90;;;;;;4935999;29;20706;-78
2023/06/23 08:56:13;;;;;;;9.90;8.10;;;18.90;99.90;;;;;;4936507;29;20209;-78
2023/06/23 08:58:42;;;;;;;9.23;8.33;;;18.70;99.90;;;;;;4936575;29;20295;-76
2023/06/23 09:01:10;;;;;;;9.13;8.23;;;18.50;99.90;;;;;;4935821;29;20704;-77
2023/06/23 09:03:39;;;;;;;8.97;8.07;;;18.40;99.90;;;;;;4935778;29;20667;-76
2023/06/23 09:06:09;;;;;;;9.90;8.60;;;18.30;99.90;;;;;;4936709;29;20216;-76
2023/06/23 09:08:37;;;;;;;11.97;8.27;;;18.20;99.90;;;;;;4936513;29;20706;-74
2023/06/23 09:11:06;;;;;;;10.67;8.80;;;18.00;99.90;;;;;;4936125;29;20576;-74
2023/06/23 09:13:36;;;;;;;9.93;8.90;;;17.90;99.90;;;;;;4936143;29;20212;-75
2023/06/23 09:16:05;;;;;;;10.73;8.73;;;17.90;99.90;;;;;;4936184;29;20184;-77
2023/06/23 09:18:38;;;;;;;10.07;9.07;;;17.90;99.90;;;;;;4936052;29;20236;-75
2023/06/23 09:21:09;;;;;;;9.93;8.90;;;17.90;99.90;;;;;;4936145;29;20200;-77
2023/06/23 09:23:38;;;;;;;10.47;9.30;;;18.00;99.90;;;;;;4935793;29;20272;-77
2023/06/23 09:26:07;;;;;;;12.07;9.30;;;18.10;99.90;;;;;;4936086;29;20219;-76
2023/06/23 09:28:37;;;;;;;10.23;9.13;;;18.30;99.90;;;;;;4937774;28;20228;-74
2023/06/23 09:31:10;;;;;;;10.53;9.43;;;18.60;99.90;;;;;;4974463;28;20207;-75
2023/06/23 09:33:47;;;;;;;10.23;9.23;;;18.80;99.90;;;;;;4973675;28;20218;-75
2023/06/23 09:36:17;;;;;;;11.00;9.40;;;19.20;99.90;;;;;;4967390;28;20690;-77
2023/06/23 09:38:48;;;;;;;11.40;9.53;;;19.80;99.90;;;;;;4935892;29;20263;-76
2023/06/23 09:41:18;;;;;;;11.57;9.93;;;20.50;99.90;;;;;;4935798;29;20224;-77
2023/06/23 09:43:50;;;;;;;10.40;8.90;;;21.50;99.90;;;;;;4935423;29;20248;-76
2023/06/23 09:46:19;;;;;;;10.03;8.63;;;22.00;99.90;;;;;;4935737;29;20208;-77
2023/06/23 09:48:49;;;;;;;11.20;8.20;;;22.40;99.90;;;;;;4935329;29;20232;-75
2023/06/23 09:51:20;;;;;;;9.83;8.77;;;22.30;99.90;;;;;;4935690;29;20216;-75
2023/06/23 09:53:49;;;;;;;10.23;9.13;;;21.80;99.90;;;;;;4934571;29;20243;-75
2023/06/23 09:56:19;;;;;;;10.00;8.83;;;21.50;99.90;;;;;;4935544;29;20560;-76
2023/06/23 09:58:48;;;;;;;10.27;9.20;;;20.90;99.90;;;;;;4963608;28;20261;-78
2023/06/23 10:01:19;;;;;;;10.90;9.30;;;20.50;99.90;;;;;;4969101;28;20221;-77
2023/06/23 10:03:48;;;;;;;10.30;9.30;;;20.20;99.90;;;;;;4934874;29;20196;-76
2023/06/23 10:06:32;;;;;;;12.13;10.37;;;20.00;99.90;;;;;;4935331;28;20212;-75
2023/06/23 10:09:02;;;;;;;11.60;10.40;;;19.70;99.90;;;;;;4935242;29;20315;-75
2023/06/23 10:11:31;;;;;;;10.77;9.67;;;19.50;99.90;;;;;;4935118;29;20727;-75
2023/06/23 10:14:05;;;;;;;11.93;9.50;;;19.50;99.90;;;;;;4934363;29;20223;-74
2023/06/23 10:16:34;;;;;;;11.40;9.90;;;19.50;99.90;;;;;;4935489;29;20208;-76
2023/06/23 10:19:05;;;;;;;11.83;10.17;;;20.00;99.90;;;;;;4935017;29;20215;-75
2023/06/23 10:21:36;;;;;;;11.60;9.10;;;20.70;99.90;;;;;;4935425;29;20263;-74
2023/06/23 10:24:06;;;;;;;9.67;8.67;;;21.30;99.90;;;;;;4934596;29;20283;-77
2023/06/23 10:26:37;;;;;;;11.00;8.70;;;21.90;99.90;;;;;;4934744;29;20263;-77
2023/06/23 10:29:07;;;;;;;12.37;9.00;;;22.10;99.90;;;;;;4966423;28;20219;-76
2023/06/23 10:31:38;;;;;;;11.80;9.23;;;21.90;99.90;;;;;;4973577;28;20217;-76
2023/06/23 10:34:09;;;;;;;10.87;9.27;;;21.70;99.90;;;;;;4973284;28;20215;-78
2023/06/23 10:36:41;;;;;;;13.03;10.57;;;21.60;99.90;;;;;;4954875;28;20216;-75
2023/06/23 10:39:11;;;;;;;11.93;10.40;;;21.10;99.90;;;;;;4934950;29;20242;-78
2023/06/23 10:41:41;;;;;;;10.77;9.67;;;20.90;99.90;;;;;;4934818;29;20267;-76
2023/06/23 10:44:09;;;;;;;11.30;9.40;;;21.90;99.90;;;;;;4934544;29;20295;-76
2023/06/23 10:46:38;;;;;;;11.10;8.67;;;23.20;99.90;;;;;;4934917;29;20351;-75
2023/06/23 10:49:07;;;;;;;10.00;9.10;;;24.10;99.90;;;;;;4934857;29;20263;-76
2023/06/23 10:51:38;;;;;;;10.63;9.53;;;23.90;99.90;;;;;;4934610;29;20216;-77
2023/06/23 10:54:09;;;;;;;10.20;9.10;;;23.40;99.90;;;;;;4934028;29;20255;-76
2023/06/23 10:56:39;;;;;;;9.93;8.83;;;22.80;99.90;;;;;;4934798;29;20204;-74
2023/06/23 10:59:20;;;;;;;9.77;8.47;;;21.90;99.90;;;;;;4934630;29;20231;-76
2023/06/23 11:02:08;;;;;;;9.70;8.07;;;21.90;99.90;;;;;;4934359;29;20670;-75
2023/06/23 11:04:38;;;;;;;7.83;7.03;;;22.70;99.90;;;;;;4934650;29;20212;-75
2023/06/23 11:07:09;;;;;;;8.17;6.50;;;23.20;99.90;;;;;;4934557;29;20658;-75
2023/06/23 11:09:44;;;;;;;7.87;6.70;;;23.60;99.90;;;;;;4934608;29;20236;-77
2023/06/23 11:12:29;;;;;;;8.67;6.20;;;24.00;98.70;;;;;;4934240;29;20633;-78
2023/06/23 11:15:02;;;;;;;8.67;6.07;;;24.40;99.90;;;;;;4934376;29;20670;-75
2023/06/23 11:17:39;;;;;;;6.50;5.33;;;24.70;98.00;;;;;;4934733;29;20192;-80
2023/06/23 11:20:11;;;;;;;7.37;5.13;;;25.20;97.60;;;;;;4934125;29;20690;-77
2023/06/23 11:22:54;;;;;;;7.37;6.33;;;25.30;97.60;;;;;;4934151;29;20219;-77
2023/06/23 11:25:28;;;;;;;8.73;5.83;;;25.10;93.90;;;;;;4935757;29;20220;-75
2023/06/23 11:28:35;;;;;;;7.83;5.90;;;25.20;95.30;;;;;;4973687;28;20211;-76
2023/06/23 11:31:08;;;;;;;8.30;6.13;;;25.40;92.70;;;;;;4938023;29;20777;-74
2023/06/23 11:33:38;;;;;;;9.30;6.17;;;25.50;91.30;;;;;;4937977;29;20299;-75
2023/06/23 11:36:07;;;;;;;11.27;6.00;;;25.40;91.30;;;;;;4937547;29;20252;-76
2023/06/23 11:38:39;;;;;;;6.50;5.80;;;25.60;91.00;;;;;;4937654;29;20220;-75
2023/06/23 11:41:07;;;;;;;7.23;5.90;;;25.70;93.40;;;;;;4938031;29;20199;-76
2023/06/23 11:43:38;;;;;;;6.87;5.83;;;25.80;93.10;;;;;;4937529;29;20267;-74
2023/06/23 11:46:09;;;;;;;5.80;5.20;;;26.00;93.60;;;;;;4937595;29;20212;-76
2023/06/23 11:48:39;;;;;;;7.47;5.07;;;26.30;92.20;;;;;;4937847;29;20267;-74
2023/06/23 11:51:09;;;;;;;7.13;4.97;;;26.30;84.90;;;;;;4937927;29;20219;-77
2023/06/23 11:53:41;;;;;;;8.50;5.47;;;26.10;83.90;;;;;;4937196;29;20785;-77
2023/06/23 11:56:09;;;;;;;7.60;5.20;;;25.80;81.60;;;;;;4937858;29;20212;-75
2023/06/23 11:58:38;;;;;;;7.53;5.13;;;25.50;80.90;;;;;;4937341;29;20220;-78
2023/06/23 12:01:06;;;;;;;6.37;5.03;;;25.70;87.90;;;;;;4937852;29;20255;-75
2023/06/23 12:03:36;;;;;;;6.27;4.80;;;25.70;83.00;;;;;;4937046;29;20208;-74
2023/06/23 12:06:05;;;;;;;6.50;4.50;;;25.40;82.90;;;;;;4937176;29;20224;-76
2023/06/23 12:08:34;;;;;;;9.90;4.77;;;25.30;85.40;;;;;;4937115;29;20557;-74
2023/06/23 12:11:05;;;;;;;5.57;4.60;;;24.90;85.70;;;;;;4937051;29;20267;-75
2023/06/23 12:13:37;;;;;;;4.80;4.30;;;25.20;85.20;;;;;;4936809;29;20253;-76
2023/06/23 12:16:06;;;;;;;5.40;4.30;;;25.90;77.30;;;;;;4937096;29;20204;-76
2023/06/23 12:18:44;;;;;;;6.43;4.80;;;26.40;77.80;;;;;;4937290;29;20216;-78
2023/06/23 12:21:12;;;;;;;8.60;4.73;;;26.70;75.00;;;;;;4936979;29;20199;-77
2023/06/23 12:23:40;;;;;;;7.80;4.77;;;26.80;71.70;;;;;;4936340;29;20204;-76
2023/06/23 12:26:12;;;;;;;8.53;4.33;;;26.60;73.00;;;;;;4966665;28;20636;-75
2023/06/23 12:28:41;;;;;;;6.33;4.40;;;26.60;72.50;;;;;;4975329;28;20301;-75
2023/06/23 12:31:10;;;;;;;7.53;4.57;;;25.70;69.60;;;;;;4975488;28;20246;-75
2023/06/23 12:33:40;;;;;;;5.33;4.13;;;25.30;72.50;;;;;;4949562;28;20212;-77
2023/06/23 12:36:15;;;;;;;6.63;4.53;;;25.00;77.90;;;;;;4936009;29;20239;-77
2023/06/23 12:38:44;;;;;;;6.60;4.40;;;24.80;75.40;;;;;;4935496;29;20219;-75
2023/06/23 12:41:17;;;;;;;6.60;4.30;;;24.80;78.00;;;;;;4936665;29;20208;-77
2023/06/23 12:43:46;;;;;;;6.17;4.73;;;25.40;79.80;;;;;;4936875;29;20223;-77
2023/06/23 12:46:15;;;;;;;6.23;4.90;;;25.50;74.50;;;;;;4937345;29;20585;-78
2023/06/23 12:48:44;;;;;;;7.57;5.10;;;25.30;78.30;;;;;;4937002;29;20304;-77
2023/06/23 12:51:12;;;;;;;5.20;4.47;;;25.00;82.00;;;;;;4936770;29;20665;-75
2023/06/23 12:53:41;;;;;;;5.47;4.50;;;25.30;82.20;;;;;;4937474;29;20275;-77
2023/06/23 12:56:11;;;;;;;5.37;4.40;;;26.00;79.30;;;;;;4937895;29;20694;-77
2023/06/23 12:58:41;;;;;;;6.47;4.50;;;26.20;76.50;;;;;;4937090;29;20216;-75
2023/06/23 13:01:10;;;;;;;6.67;4.43;;;25.90;78.00;;;;;;4937082;29;20212;-79
2023/06/23 13:03:38;;;;;;;5.57;4.60;;;25.60;76.50;;;;;;4938141;29;20216;-76